sensor_id;sensor_type;location;lat;lon;timestamp;pressure;altitude;pressure_sealevel;temperature;humidity
8575;BME280;4325;42.520;27.448;2023-03-15T00:00:55;100474.06;;;4.11;100.00
8575;BME280;4325;42.520;27.448;2023-03-15T00:03:22;100477.69;;;4.17;100.00
8575;BME280;4325;42.520;27.448;2023-03-15T00:05:50;100475.56;;;4.19;100.00
8575;BME280;4325;42.520;27.448;2023-03-15T00:08:18;100467.69;;;4.17;100.00
8575;BME280;4325;42.520;27.448;2023-03-15T00:10:47;100468.50;;;4.18;100.00
8575;BME280;4325;42.520;27.448;2023-03-15T00:13:15;100463.22;;;4.11;100.00
8575;BME280;4325;42.520;27.448;2023-03-15T00:15:47;100460.38;;;4.06;100.00
8575;BME280;4325;42.520;27.448;2023-03-15T00:18:15;100452.94;;;4.01;100.00
8575;BME280;4325;42.520;27.448;2023-03-15T00:20:42;100445.53;;;3.97;100.00
8575;BME280;4325;42.520;27.448;2023-03-15T00:23:09;100442.25;;;3.95;100.00
8575;BME280;4325;42.520;27.448;2023-03-15T00:25:36;100418.78;;;3.77;100.00
8575;BME280;4325;42.520;27.448;2023-03-15T00:28:04;100437.41;;;3.85;100.00
8575;BME280;4325;42.520;27.448;2023-03-15T00:30:32;100425.88;;;3.78;100.00
8575;BME280;4325;42.520;27.448;2023-03-15T00:32:59;100416.78;;;3.73;100.00
8575;BME280;4325;42.520;27.448;2023-03-15T00:35:26;100404.69;;;3.64;100.00
8575;BME280;4325;42.520;27.448;2023-03-15T00:37:54;100400.81;;;3.60;100.00
8575;BME280;4325;42.520;27.448;2023-03-15T00:40:21;100393.38;;;3.55;100.00
8575;BME280;4325;42.520;27.448;2023-03-15T00:42:48;100392.91;;;3.58;100.00
8575;BME280;4325;42.520;27.448;2023-03-15T00:45:16;100380.53;;;3.51;100.00
8575;BME280;4325;42.520;27.448;2023-03-15T00:47:44;100381.81;;;3.48;100.00
8575;BME280;4325;42.520;27.448;2023-03-15T00:50:14;100369.00;;;3.44;100.00
8575;BME280;4325;42.520;27.448;2023-03-15T00:52:40;100361.59;;;3.39;100.00
8575;BME280;4325;42.520;27.448;2023-03-15T00:55:10;100363.72;;;3.37;100.00
8575;BME280;4325;42.520;27.448;2023-03-15T00:57:39;100359.97;;;3.38;100.00
8575;BME280;4325;42.520;27.448;2023-03-15T01:00:08;100362.03;;;3.36;100.00
8575;BME280;4325;42.520;27.448;2023-03-15T01:02:36;100356.88;;;3.34;100.00
8575;BME280;4325;42.520;27.448;2023-03-15T01:05:06;100351.97;;;3.43;100.00
8575;BME280;4325;42.520;27.448;2023-03-15T01:07:33;100344.06;;;3.42;100.00
8575;BME280;4325;42.520;27.448;2023-03-15T01:10:00;100345.94;;;3.41;100.00
8575;BME280;4325;42.520;27.448;2023-03-15T01:12:27;100349.94;;;3.39;100.00
8575;BME280;4325;42.520;27.448;2023-03-15T01:14:54;100357.13;;;3.33;100.00
8575;BME280;4325;42.520;27.448;2023-03-15T01:17:21;100343.47;;;3.28;100.00
8575;BME280;4325;42.520;27.448;2023-03-15T01:19:48;100344.63;;;3.32;100.00
8575;BME280;4325;42.520;27.448;2023-03-15T01:22:17;100352.63;;;3.27;100.00
8575;BME280;4325;42.520;27.448;2023-03-15T01:24:44;100347.34;;;3.20;100.00
8575;BME280;4325;42.520;27.448;2023-03-15T01:27:11;100344.84;;;3.19;100.00
8575;BME280;4325;42.520;27.448;2023-03-15T01:29:38;100339.66;;;3.06;100.00
8575;BME280;4325;42.520;27.448;2023-03-15T01:32:06;100341.41;;;3.00;100.00
8575;BME280;4325;42.520;27.448;2023-03-15T01:34:33;100342.44;;;2.88;100.00
8575;BME280;4325;42.520;27.448;2023-03-15T01:37:00;100333.00;;;2.79;100.00
8575;BME280;4325;42.520;27.448;2023-03-15T01:39:28;100342.72;;;2.68;100.00
8575;BME280;4325;42.520;27.448;2023-03-15T01:41:55;100334.28;;;2.64;100.00
8575;BME280;4325;42.520;27.448;2023-03-15T01:44:22;100332.47;;;2.58;100.00
8575;BME280;4325;42.520;27.448;2023-03-15T01:46:49;100330.25;;;2.55;100.00
8575;BME280;4325;42.520;27.448;2023-03-15T01:49:18;100332.94;;;2.55;100.00
8575;BME280;4325;42.520;27.448;2023-03-15T01:51:51;100325.78;;;2.61;100.00
8575;BME280;4325;42.520;27.448;2023-03-15T01:54:21;100321.22;;;2.61;100.00
8575;BME280;4325;42.520;27.448;2023-03-15T01:56:56;100323.91;;;2.61;100.00
8575;BME280;4325;42.520;27.448;2023-03-15T01:59:28;100330.75;;;2.64;100.00
8575;BME280;4325;42.520;27.448;2023-03-15T02:01:57;100329.47;;;2.66;100.00
8575;BME280;4325;42.520;27.448;2023-03-15T02:04:28;100319.53;;;2.60;100.00
8575;BME280;4325;42.520;27.448;2023-03-15T02:06:58;100317.91;;;2.59;100.00
8575;BME280;4325;42.520;27.448;2023-03-15T02:09:33;100311.69;;;2.59;100.00
8575;BME280;4325;42.520;27.448;2023-03-15T02:12:03;100324.50;;;2.63;100.00
8575;BME280;4325;42.520;27.448;2023-03-15T02:14:31;100312.06;;;2.62;100.00
8575;BME280;4325;42.520;27.448;2023-03-15T02:16:59;100313.34;;;2.60;100.00
8575;BME280;4325;42.520;27.448;2023-03-15T02:19:38;100312.13;;;2.56;100.00
8575;BME280;4325;42.520;27.448;2023-03-15T02:22:15;100305.09;;;2.55;100.00
8575;BME280;4325;42.520;27.448;2023-03-15T02:24:52;100306.38;;;2.52;100.00
8575;BME280;4325;42.520;27.448;2023-03-15T02:27:26;100317.78;;;2.54;100.00
8575;BME280;4325;42.520;27.448;2023-03-15T02:29:54;100317.19;;;2.52;100.00
8575;BME280;4325;42.520;27.448;2023-03-15T02:32:21;100323.44;;;2.53;100.00
8575;BME280;4325;42.520;27.448;2023-03-15T02:34:48;100336.44;;;2.56;100.00
8575;BME280;4325;42.520;27.448;2023-03-15T02:37:15;100331.28;;;2.54;100.00
8575;BME280;4325;42.520;27.448;2023-03-15T02:39:41;100331.75;;;2.51;100.00
8575;BME280;4325;42.520;27.448;2023-03-15T02:42:08;100323.97;;;2.43;100.00
8575;BME280;4325;42.520;27.448;2023-03-15T02:44:39;100324.88;;;2.37;100.00
8575;BME280;4325;42.520;27.448;2023-03-15T02:47:09;100325.16;;;2.47;100.00
8575;BME280;4325;42.520;27.448;2023-03-15T02:49:41;100325.50;;;2.51;100.00
8575;BME280;4325;42.520;27.448;2023-03-15T02:52:10;100331.28;;;2.54;100.00
8575;BME280;4325;42.520;27.448;2023-03-15T02:54:38;100324.22;;;2.53;100.00
8575;BME280;4325;42.520;27.448;2023-03-15T02:57:08;100326.47;;;2.56;100.00
8575;BME280;4325;42.520;27.448;2023-03-15T02:59:36;100322.16;;;2.55;100.00
8575;BME280;4325;42.520;27.448;2023-03-15T03:02:03;100324.38;;;2.58;100.00
8575;BME280;4325;42.520;27.448;2023-03-15T03:04:30;100332.13;;;2.55;100.00
8575;BME280;4325;42.520;27.448;2023-03-15T03:06:57;100328.84;;;2.53;100.00
8575;BME280;4325;42.520;27.448;2023-03-15T03:09:24;100318.81;;;2.53;100.00
8575;BME280;4325;42.520;27.448;2023-03-15T03:11:52;100320.84;;;2.58;100.00
8575;BME280;4325;42.520;27.448;2023-03-15T03:14:19;100318.97;;;2.58;100.00
8575;BME280;4325;42.520;27.448;2023-03-15T03:16:49;100319.78;;;2.59;100.00
8575;BME280;4325;42.520;27.448;2023-03-15T03:19:16;100330.59;;;2.59;100.00
8575;BME280;4325;42.520;27.448;2023-03-15T03:21:43;100318.97;;;2.58;100.00
8575;BME280;4325;42.520;27.448;2023-03-15T03:24:10;100319.53;;;2.60;100.00
8575;BME280;4325;42.520;27.448;2023-03-15T03:26:40;100328.13;;;2.57;100.00
8575;BME280;4325;42.520;27.448;2023-03-15T03:29:10;100327.66;;;2.60;100.00
8575;BME280;4325;42.520;27.448;2023-03-15T03:31:41;100320.84;;;2.58;100.00
8575;BME280;4325;42.520;27.448;2023-03-15T03:34:09;100324.22;;;2.53;100.00
8575;BME280;4325;42.520;27.448;2023-03-15T03:36:39;100321.91;;;2.57;100.00
8575;BME280;4325;42.520;27.448;2023-03-15T03:39:07;100317.78;;;2.54;100.00
8575;BME280;4325;42.520;27.448;2023-03-15T03:41:34;100305.09;;;2.55;100.00
8575;BME280;4325;42.520;27.448;2023-03-15T03:44:01;100315.06;;;2.54;100.00
8575;BME280;4325;42.520;27.448;2023-03-15T03:46:28;100309.53;;;2.49;100.00
8575;BME280;4325;42.520;27.448;2023-03-15T03:48:55;100314.94;;;2.49;100.00
8575;BME280;4325;42.520;27.448;2023-03-15T03:51:23;100314.09;;;2.49;100.00
8575;BME280;4325;42.520;27.448;2023-03-15T03:53:50;100322.81;;;2.51;100.00
8575;BME280;4325;42.520;27.448;2023-03-15T03:56:16;100334.00;;;2.54;100.00
8575;BME280;4325;42.520;27.448;2023-03-15T03:58:43;100331.28;;;2.54;100.00
8575;BME280;4325;42.520;27.448;2023-03-15T04:01:10;100323.50;;;2.46;100.00
8575;BME280;4325;42.520;27.448;2023-03-15T04:03:37;100326.00;;;2.48;100.00
8575;BME280;4325;42.520;27.448;2023-03-15T04:06:04;100321.88;;;2.45;100.00
8575;BME280;4325;42.520;27.448;2023-03-15T04:08:32;100311.06;;;2.45;100.00
8575;BME280;4325;42.520;27.448;2023-03-15T04:10:59;100318.91;;;2.47;100.00
8575;BME280;4325;42.520;27.448;2023-03-15T04:13:29;100307.75;;;2.43;100.00
8575;BME280;4325;42.520;27.448;2023-03-15T04:15:56;100302.81;;;2.40;100.00
8575;BME280;4325;42.520;27.448;2023-03-15T04:18:23;100317.16;;;2.41;100.00
8575;BME280;4325;42.520;27.448;2023-03-15T04:20:50;100320.31;;;2.38;100.00
8575;BME280;4325;42.520;27.448;2023-03-15T04:23:19;100319.22;;;2.39;100.00
8575;BME280;4325;42.520;27.448;2023-03-15T04:25:48;100322.31;;;2.42;100.00
8575;BME280;4325;42.520;27.448;2023-03-15T04:28:16;100299.03;;;2.41;100.00
8575;BME280;4325;42.520;27.448;2023-03-15T04:30:44;100308.00;;;2.53;100.00
8575;BME280;4325;42.520;27.448;2023-03-15T04:33:11;100309.22;;;2.57;100.00
8575;BME280;4325;42.520;27.448;2023-03-15T04:35:38;100316.41;;;2.63;100.00
8575;BME280;4325;42.520;27.448;2023-03-15T04:38:07;100305.72;;;2.68;100.00
8575;BME280;4325;42.520;27.448;2023-03-15T04:40:34;100315.38;;;2.76;100.00
8575;BME280;4325;42.520;27.448;2023-03-15T04:43:03;100315.50;;;2.70;100.00
8575;BME280;4325;42.520;27.448;2023-03-15T04:45:31;100312.78;;;2.70;100.00
8575;BME280;4325;42.520;27.448;2023-03-15T04:47:58;100316.53;;;2.68;100.00
8575;BME280;4325;42.520;27.448;2023-03-15T04:50:26;100313.06;;;2.80;100.00
8575;BME280;4325;42.520;27.448;2023-03-15T04:52:53;100307.06;;;2.89;100.00
8575;BME280;4325;42.520;27.448;2023-03-15T04:55:20;100312.50;;;3.01;100.00
8575;BME280;4325;42.520;27.448;2023-03-15T04:57:47;100317.34;;;3.22;100.00
8575;BME280;4325;42.520;27.448;2023-03-15T05:00:16;100315.59;;;3.27;100.00
8575;BME280;4325;42.520;27.448;2023-03-15T05:02:43;100316.66;;;3.38;100.00
8575;BME280;4325;42.520;27.448;2023-03-15T05:05:16;100319.91;;;3.17;100.00
8575;BME280;4325;42.520;27.448;2023-03-15T05:07:43;100318.16;;;2.99;100.00
8575;BME280;4325;42.520;27.448;2023-03-15T05:10:10;100319.97;;;2.87;100.00
8575;BME280;4325;42.520;27.448;2023-03-15T05:12:37;100307.69;;;2.61;100.00
8575;BME280;4325;42.520;27.448;2023-03-15T05:15:05;100308.00;;;2.53;100.00
8575;BME280;4325;42.520;27.448;2023-03-15T05:17:33;100304.66;;;2.58;100.00
8575;BME280;4325;42.520;27.448;2023-03-15T05:20:00;100292.00;;;2.70;100.00
8575;BME280;4325;42.520;27.448;2023-03-15T05:22:32;100296.59;;;2.81;100.00
8575;BME280;4325;42.520;27.448;2023-03-15T05:24:59;100290.47;;;2.86;100.00
8575;BME280;4325;42.520;27.448;2023-03-15T05:27:26;100287.00;;;2.97;100.00
8575;BME280;4325;42.520;27.448;2023-03-15T05:29:53;100275.47;;;3.13;100.00
8575;BME280;4325;42.520;27.448;2023-03-15T05:32:20;100264.91;;;3.23;100.00
8575;BME280;4325;42.520;27.448;2023-03-15T05:34:52;100260.66;;;3.27;100.00
8575;BME280;4325;42.520;27.448;2023-03-15T05:37:20;100279.97;;;3.30;100.00
8575;BME280;4325;42.520;27.448;2023-03-15T05:39:47;100277.00;;;3.20;100.00
8575;BME280;4325;42.520;27.448;2023-03-15T05:42:14;100271.38;;;3.45;100.00
8575;BME280;4325;42.520;27.448;2023-03-15T05:44:46;100273.56;;;3.48;100.00
8575;BME280;4325;42.520;27.448;2023-03-15T05:47:14;100270.28;;;3.69;100.00
8575;BME280;4325;42.520;27.448;2023-03-15T05:49:41;100254.38;;;4.13;100.00
8575;BME280;4325;42.520;27.448;2023-03-15T05:52:09;100264.00;;;4.65;100.00
8575;BME280;4325;42.520;27.448;2023-03-15T05:54:36;100270.31;;;4.99;100.00
8575;BME280;4325;42.520;27.448;2023-03-15T05:57:04;100264.38;;;4.85;100.00
8575;BME280;4325;42.520;27.448;2023-03-15T05:59:31;100261.91;;;4.67;100.00
8575;BME280;4325;42.520;27.448;2023-03-15T06:01:58;100258.75;;;4.58;100.00
8575;BME280;4325;42.520;27.448;2023-03-15T06:04:25;100254.34;;;4.69;100.00
8575;BME280;4325;42.520;27.448;2023-03-15T06:06:52;100251.72;;;4.91;100.00
8575;BME280;4325;42.520;27.448;2023-03-15T06:09:20;100229.03;;;5.13;100.00
8575;BME280;4325;42.520;27.448;2023-03-15T06:11:47;100222.75;;;5.29;100.00
8575;BME280;4325;42.520;27.448;2023-03-15T06:14:14;100228.81;;;5.37;100.00
8575;BME280;4325;42.520;27.448;2023-03-15T06:16:40;100235.44;;;5.46;100.00
8575;BME280;4325;42.520;27.448;2023-03-15T06:19:07;100240.47;;;5.54;100.00
8575;BME280;4325;42.520;27.448;2023-03-15T06:21:34;100238.75;;;5.86;100.00
8575;BME280;4325;42.520;27.448;2023-03-15T06:24:01;100245.25;;;6.33;100.00
8575;BME280;4325;42.520;27.448;2023-03-15T06:26:29;100258.47;;;6.73;100.00
8575;BME280;4325;42.520;27.448;2023-03-15T06:28:56;100250.94;;;7.17;100.00
8575;BME280;4325;42.520;27.448;2023-03-15T06:31:23;100246.88;;;7.61;100.00
8575;BME280;4325;42.520;27.448;2023-03-15T06:33:50;100232.81;;;7.89;100.00
8575;BME280;4325;42.520;27.448;2023-03-15T06:36:17;100233.88;;;7.78;100.00
8575;BME280;4325;42.520;27.448;2023-03-15T06:38:44;100235.03;;;7.92;100.00
8575;BME280;4325;42.520;27.448;2023-03-15T06:41:11;100219.41;;;8.55;100.00
8575;BME280;4325;42.520;27.448;2023-03-15T06:43:41;100228.72;;;9.24;99.23
8575;BME280;4325;42.520;27.448;2023-03-15T06:46:08;100219.56;;;9.69;95.46
8575;BME280;4325;42.520;27.448;2023-03-15T06:48:35;100233.03;;;9.56;89.98
8575;BME280;4325;42.520;27.448;2023-03-15T06:51:02;100231.38;;;9.60;92.33
8575;BME280;4325;42.520;27.448;2023-03-15T06:53:30;100220.44;;;9.60;92.76
8575;BME280;4325;42.520;27.448;2023-03-15T06:55:57;100208.75;;;9.34;91.88
8575;BME280;4325;42.520;27.448;2023-03-15T06:58:24;100217.78;;;9.24;93.96
8575;BME280;4325;42.520;27.448;2023-03-15T07:00:52;100215.59;;;9.16;95.23
8575;BME280;4325;42.520;27.448;2023-03-15T07:03:19;100220.25;;;9.11;93.89
8575;BME280;4325;42.520;27.448;2023-03-15T07:05:46;100227.63;;;9.00;92.23
8575;BME280;4325;42.520;27.448;2023-03-15T07:08:17;100224.31;;;8.53;95.12
8575;BME280;4325;42.520;27.448;2023-03-15T07:10:44;100215.59;;;8.51;96.50
8575;BME280;4325;42.520;27.448;2023-03-15T07:13:10;100215.59;;;8.76;96.12
8575;BME280;4325;42.520;27.448;2023-03-15T07:15:37;100217.72;;;9.55;93.69
8575;BME280;4325;42.520;27.448;2023-03-15T07:18:06;100212.13;;;11.92;84.60
8575;BME280;4325;42.520;27.448;2023-03-15T07:20:32;100205.44;;;12.97;67.17
8575;BME280;4325;42.520;27.448;2023-03-15T07:22:59;100210.09;;;14.65;58.37
8575;BME280;4325;42.520;27.448;2023-03-15T07:25:26;100208.59;;;15.87;53.09
8575;BME280;4325;42.520;27.448;2023-03-15T07:27:53;100200.81;;;15.89;51.10
8575;BME280;4325;42.520;27.448;2023-03-15T07:30:20;100199.47;;;16.51;48.95
8575;BME280;4325;42.520;27.448;2023-03-15T07:32:47;100184.47;;;18.63;42.65
8575;BME280;4325;42.520;27.448;2023-03-15T07:35:16;100190.06;;;20.74;37.23
8575;BME280;4325;42.520;27.448;2023-03-15T07:37:43;100182.53;;;23.31;33.24
8575;BME280;4325;42.520;27.448;2023-03-15T07:40:11;100178.41;;;25.31;29.93
8575;BME280;4325;42.520;27.448;2023-03-15T07:42:38;100185.97;;;25.27;28.83
8575;BME280;4325;42.520;27.448;2023-03-15T07:45:07;100196.41;;;24.15;28.97
8575;BME280;4325;42.520;27.448;2023-03-15T07:47:34;100199.53;;;23.64;29.82
8575;BME280;4325;42.520;27.448;2023-03-15T07:50:01;100198.28;;;22.63;30.44
8575;BME280;4325;42.520;27.448;2023-03-15T07:52:29;100193.94;;;22.84;33.92
8575;BME280;4325;42.520;27.448;2023-03-15T07:54:56;100193.13;;;21.83;32.02
8575;BME280;4325;42.520;27.448;2023-03-15T07:57:23;100195.00;;;21.48;32.53
8575;BME280;4325;42.520;27.448;2023-03-15T07:59:50;100200.69;;;19.84;35.05
8575;BME280;4325;42.520;27.448;2023-03-15T08:02:18;100195.41;;;20.15;35.19
8575;BME280;4325;42.520;27.448;2023-03-15T08:04:45;100199.09;;;20.43;34.43
8575;BME280;4325;42.520;27.448;2023-03-15T08:07:13;100202.22;;;20.42;34.68
8575;BME280;4325;42.520;27.448;2023-03-15T08:09:41;100191.69;;;21.58;34.26
8575;BME280;4325;42.520;27.448;2023-03-15T08:12:11;100188.38;;;22.50;33.67
8575;BME280;4325;42.520;27.448;2023-03-15T08:14:38;100177.13;;;23.38;31.97
8575;BME280;4325;42.520;27.448;2023-03-15T08:17:05;100179.41;;;24.53;32.10
8575;BME280;4325;42.520;27.448;2023-03-15T08:19:37;100172.13;;;24.19;29.35
8575;BME280;4325;42.520;27.448;2023-03-15T08:22:04;100164.28;;;23.83;29.60
8575;BME280;4325;42.520;27.448;2023-03-15T08:24:35;100180.06;;;24.43;27.84
8575;BME280;4325;42.520;27.448;2023-03-15T08:27:07;100161.63;;;26.88;26.41
8575;BME280;4325;42.520;27.448;2023-03-15T08:29:35;100171.50;;;28.24;24.18
8575;BME280;4325;42.520;27.448;2023-03-15T08:32:02;100152.50;;;30.49;23.14
8575;BME280;4325;42.520;27.448;2023-03-15T08:34:29;100162.59;;;32.84;21.40
8575;BME280;4325;42.520;27.448;2023-03-15T08:36:57;100153.09;;;33.13;19.59
8575;BME280;4325;42.520;27.448;2023-03-15T08:39:24;100144.41;;;33.56;19.61
8575;BME280;4325;42.520;27.448;2023-03-15T08:41:50;100144.97;;;34.89;19.16
8575;BME280;4325;42.520;27.448;2023-03-15T08:44:18;100145.16;;;35.24;18.46
8575;BME280;4325;42.520;27.448;2023-03-15T08:46:45;100155.50;;;33.51;17.90
8575;BME280;4325;42.520;27.448;2023-03-15T08:49:12;100147.44;;;32.31;19.69
8575;BME280;4325;42.520;27.448;2023-03-15T08:51:39;100146.44;;;31.95;20.65
8575;BME280;4325;42.520;27.448;2023-03-15T08:54:06;100138.81;;;31.92;20.03
8575;BME280;4325;42.520;27.448;2023-03-15T08:56:33;100146.44;;;32.41;20.12
8575;BME280;4325;42.520;27.448;2023-03-15T08:59:00;100143.91;;;32.86;18.95
8575;BME280;4325;42.520;27.448;2023-03-15T09:01:28;100148.72;;;32.89;18.81
8575;BME280;4325;42.520;27.448;2023-03-15T09:03:55;100143.59;;;33.00;18.57
8575;BME280;4325;42.520;27.448;2023-03-15T09:06:22;100139.38;;;33.28;18.54
8575;BME280;4325;42.520;27.448;2023-03-15T09:08:49;100131.97;;;32.36;16.97
8575;BME280;4325;42.520;27.448;2023-03-15T09:11:18;100136.31;;;30.50;18.19
8575;BME280;4325;42.520;27.448;2023-03-15T09:13:45;100141.28;;;28.49;18.45
8575;BME280;4325;42.520;27.448;2023-03-15T09:16:12;100134.53;;;27.83;19.88
8575;BME280;4325;42.520;27.448;2023-03-15T09:18:40;100141.63;;;28.72;20.24
8575;BME280;4325;42.520;27.448;2023-03-15T09:21:08;100139.81;;;29.79;18.97
8575;BME280;4325;42.520;27.448;2023-03-15T09:23:35;100135.41;;;30.60;19.25
8575;BME280;4325;42.520;27.448;2023-03-15T09:26:02;100134.28;;;31.18;17.94
8575;BME280;4325;42.520;27.448;2023-03-15T09:28:29;100137.53;;;31.43;16.89
8575;BME280;4325;42.520;27.448;2023-03-15T09:30:56;100130.59;;;31.51;16.45
8575;BME280;4325;42.520;27.448;2023-03-15T09:33:23;100137.72;;;32.09;14.48
8575;BME280;4325;42.520;27.448;2023-03-15T09:35:51;100134.31;;;33.55;15.20
8575;BME280;4325;42.520;27.448;2023-03-15T09:38:18;100126.59;;;34.49;14.11
8575;BME280;4325;42.520;27.448;2023-03-15T09:40:46;100131.72;;;35.37;13.59
8575;BME280;4325;42.520;27.448;2023-03-15T09:43:38;100135.63;;;37.05;12.97
8575;BME280;4325;42.520;27.448;2023-03-15T09:46:18;100135.44;;;39.01;12.34
8575;BME280;4325;42.520;27.448;2023-03-15T09:48:51;100133.84;;;39.00;11.84
8575;BME280;4325;42.520;27.448;2023-03-15T09:51:27;100123.56;;;38.57;12.20
8575;BME280;4325;42.520;27.448;2023-03-15T09:53:59;100119.22;;;38.07;13.53
8575;BME280;4325;42.520;27.448;2023-03-15T09:56:31;100119.78;;;37.75;14.86
8575;BME280;4325;42.520;27.448;2023-03-15T09:58:59;100097.81;;;36.92;14.18
8575;BME280;4325;42.520;27.448;2023-03-15T10:01:30;100093.97;;;36.64;13.72
8575;BME280;4325;42.520;27.448;2023-03-15T10:04:02;100084.63;;;35.95;14.40
8575;BME280;4325;42.520;27.448;2023-03-15T10:06:32;100084.16;;;34.42;15.12
8575;BME280;4325;42.520;27.448;2023-03-15T10:09:03;100081.81;;;32.92;16.47
8575;BME280;4325;42.520;27.448;2023-03-15T10:11:36;100080.66;;;31.11;17.69
8575;BME280;4325;42.520;27.448;2023-03-15T10:14:14;100070.50;;;30.16;18.52
8575;BME280;4325;42.520;27.448;2023-03-15T10:16:46;100065.41;;;30.41;18.65
8575;BME280;4325;42.520;27.448;2023-03-15T10:19:17;100067.28;;;31.15;17.92
8575;BME280;4325;42.520;27.448;2023-03-15T10:21:54;100057.94;;;31.68;18.70
8575;BME280;4325;42.520;27.448;2023-03-15T10:24:30;100044.31;;;30.79;19.15
8575;BME280;4325;42.520;27.448;2023-03-15T10:27:12;100041.97;;;29.62;19.47
8575;BME280;4325;42.520;27.448;2023-03-15T10:29:40;100038.53;;;28.86;21.19
8575;BME280;4325;42.520;27.448;2023-03-15T10:32:15;100052.81;;;29.16;21.48
8575;BME280;4325;42.520;27.448;2023-03-15T10:34:47;100032.03;;;30.29;20.95
8575;BME280;4325;42.520;27.448;2023-03-15T10:37:16;100032.91;;;32.88;19.03
8575;BME280;4325;42.520;27.448;2023-03-15T10:39:45;100025.31;;;33.81;18.21
8575;BME280;4325;42.520;27.448;2023-03-15T10:42:24;100018.59;;;33.43;17.29
8575;BME280;4325;42.520;27.448;2023-03-15T10:44:51;100027.28;;;33.52;16.80
8575;BME280;4325;42.520;27.448;2023-03-15T10:47:19;100021.22;;;33.99;17.38
8575;BME280;4325;42.520;27.448;2023-03-15T10:49:46;100017.75;;;34.07;15.69
8575;BME280;4325;42.520;27.448;2023-03-15T10:52:37;100014.53;;;35.00;16.91
8575;BME280;4325;42.520;27.448;2023-03-15T10:55:06;100005.06;;;35.66;16.45
8575;BME280;4325;42.520;27.448;2023-03-15T10:57:38;99999.50;;;35.97;16.51
8575;BME280;4325;42.520;27.448;2023-03-15T11:00:19;100008.66;;;37.77;16.23
8575;BME280;4325;42.520;27.448;2023-03-15T11:02:49;100001.34;;;36.34;16.37
8575;BME280;4325;42.520;27.448;2023-03-15T11:05:17;100014.97;;;35.49;17.24
8575;BME280;4325;42.520;27.448;2023-03-15T11:07:57;100008.41;;;34.77;17.96
8575;BME280;4325;42.520;27.448;2023-03-15T11:10:26;100002.19;;;35.07;17.98
8575;BME280;4325;42.520;27.448;2023-03-15T11:13:16;100007.91;;;35.66;17.42
8575;BME280;4325;42.520;27.448;2023-03-15T11:15:52;99993.28;;;37.25;17.33
8575;BME280;4325;42.520;27.448;2023-03-15T11:18:25;100000.16;;;36.44;15.89
8575;BME280;4325;42.520;27.448;2023-03-15T11:20:54;99994.88;;;35.78;18.07
8575;BME280;4325;42.520;27.448;2023-03-15T11:23:25;99979.66;;;35.59;18.68
8575;BME280;4325;42.520;27.448;2023-03-15T11:25:53;99980.28;;;36.10;18.58
8575;BME280;4325;42.520;27.448;2023-03-15T11:28:23;99974.75;;;36.59;18.39
8575;BME280;4325;42.520;27.448;2023-03-15T11:30:51;99967.38;;;37.68;17.47
8575;BME280;4325;42.520;27.448;2023-03-15T11:33:30;99951.69;;;38.78;16.54
8575;BME280;4325;42.520;27.448;2023-03-15T11:35:59;99950.19;;;36.31;17.78
8575;BME280;4325;42.520;27.448;2023-03-15T11:38:33;99943.31;;;35.17;19.75
8575;BME280;4325;42.520;27.448;2023-03-15T11:41:06;99934.41;;;36.17;19.09
8575;BME280;4325;42.520;27.448;2023-03-15T11:43:45;99946.53;;;36.52;17.98
8575;BME280;4325;42.520;27.448;2023-03-15T11:46:21;99939.22;;;34.13;19.72
8575;BME280;4325;42.520;27.448;2023-03-15T11:48:56;99925.81;;;34.55;20.12
8575;BME280;4325;42.520;27.448;2023-03-15T11:51:24;99922.13;;;35.86;19.22
8575;BME280;4325;42.520;27.448;2023-03-15T11:54:03;99934.78;;;35.85;18.35
8575;BME280;4325;42.520;27.448;2023-03-15T11:56:46;99933.94;;;35.97;18.15
8575;BME280;4325;42.520;27.448;2023-03-15T11:59:15;99936.56;;;36.04;19.36
8575;BME280;4325;42.520;27.448;2023-03-15T12:01:45;99944.84;;;36.64;17.99
8575;BME280;4325;42.520;27.448;2023-03-15T12:04:35;99950.41;;;33.92;19.58
8575;BME280;4325;42.520;27.448;2023-03-15T12:07:04;99956.84;;;32.27;21.73
8575;BME280;4325;42.520;27.448;2023-03-15T12:09:49;99945.69;;;30.61;22.52
8575;BME280;4325;42.520;27.448;2023-03-15T12:12:44;99939.00;;;30.48;23.11
8575;BME280;4325;42.520;27.448;2023-03-15T12:15:46;99946.75;;;29.73;24.10
8575;BME280;4325;42.520;27.448;2023-03-15T12:18:17;99941.25;;;29.22;25.30
8575;BME280;4325;42.520;27.448;2023-03-15T12:20:49;99949.94;;;28.14;26.01
8575;BME280;4325;42.520;27.448;2023-03-15T12:23:37;99935.31;;;26.87;29.11
8575;BME280;4325;42.520;27.448;2023-03-15T12:26:09;99943.44;;;25.98;29.96
8575;BME280;4325;42.520;27.448;2023-03-15T12:28:49;99939.75;;;25.22;31.76
8575;BME280;4325;42.520;27.448;2023-03-15T12:31:17;99931.53;;;24.56;31.53
8575;BME280;4325;42.520;27.448;2023-03-15T12:33:46;99942.59;;;23.79;33.50
8575;BME280;4325;42.520;27.448;2023-03-15T12:36:30;99940.50;;;23.20;35.13
8575;BME280;4325;42.520;27.448;2023-03-15T12:39:00;99949.56;;;22.87;36.50
8575;BME280;4325;42.520;27.448;2023-03-15T12:41:37;99943.50;;;22.20;37.35
8575;BME280;4325;42.520;27.448;2023-03-15T12:44:24;99936.31;;;22.00;38.57
8575;BME280;4325;42.520;27.448;2023-03-15T12:46:55;99936.94;;;22.32;37.94
8575;BME280;4325;42.520;27.448;2023-03-15T12:49:34;99941.34;;;23.46;36.33
8575;BME280;4325;42.520;27.448;2023-03-15T12:52:03;99941.97;;;24.99;33.46
8575;BME280;4325;42.520;27.448;2023-03-15T12:54:41;99926.47;;;27.13;30.88
8575;BME280;4325;42.520;27.448;2023-03-15T12:57:12;99935.00;;;28.31;28.72
8575;BME280;4325;42.520;27.448;2023-03-15T12:59:44;99936.78;;;28.69;28.02
8575;BME280;4325;42.520;27.448;2023-03-15T13:02:29;99932.22;;;28.90;27.92
8575;BME280;4325;42.520;27.448;2023-03-15T13:05:09;99927.50;;;30.02;26.44
8575;BME280;4325;42.520;27.448;2023-03-15T13:10:51;99918.84;;;30.46;25.82
8575;BME280;4325;42.520;27.448;2023-03-15T13:16:33;99912.34;;;33.44;23.47
8575;BME280;4325;42.520;27.448;2023-03-15T13:19:15;99915.44;;;34.61;22.25
8575;BME280;4325;42.520;27.448;2023-03-15T13:21:54;99914.53;;;34.64;21.71